Tropical Cyclones
[Index]
Main Index Home Page Stock Weather Photos Extreme Storms Discussion Storm News and Storm Chasing Reports Tropical Cyclones / Hurricanes / Typhoons Weather Data and Links Wild Fires / Bushfires Weather Observation Techniques Weather Picture Catalogue Tornado Pictures and Reports Stock Video Footage and DVDs for sale
Season 1998-1999 Tropical Cyclone 199929 Track Map
Season 1998-1999 Summaries (Operational Data): [AU] [SIO] [SPAC] [SH]
<<- Previous TC | 1998-1999 Season | Next TC ->>

click for intensity scale information  Lat/long Grid: Show Hide

 Date Labels: Show Hide

Operational Tropical Cyclone Data : JTWC Advisories

Name: 199929
Number: 9929

11 Mar 1999 18:00 UTC to 21 Mar 1999 00:00 UTC

    date/time    lat    long     hPa   cat  kts
1999-03-11 18   14.7    86.9    1003         20          
1999-03-12 00   14.5    85.8    1003         20          
1999-03-12 06   14.4    85.0    1002         20          
1999-03-12 12   13.9    84.1    1002         20          
1999-03-12 18   13.4    83.1    1002         20          
1999-03-13 00   12.9    82.1    1002         20          
1999-03-13 06   12.7    81.1    1001         20          
1999-03-13 12   12.6    79.8    1000         23          
1999-03-13 18   12.7    78.9    1000         23          
1999-03-14 00   12.7    78.1     999         25          
1999-03-14 06   12.5    77.5     999         25          
1999-03-14 12   12.3    77.0     999         25          
1999-03-14 18   12.0    76.6    1000         23          
1999-03-15 00   12.0    76.4     999         25          
1999-03-15 06   12.2    75.9     999         25          
1999-03-15 12   12.4    75.4     999         25          
1999-03-15 18   12.5    75.0     999         25          
1999-03-16 00   12.7    74.6     996         30          
1999-03-16 06   13.0    74.3     996         30          
1999-03-16 12   13.3    74.2     996         30          
1999-03-16 18   13.4    74.0     996         30          
1999-03-17 00   13.6    73.9     995         30          
1999-03-17 06   13.6    73.8     995         30          
1999-03-17 12   13.7    73.6     995         30          
1999-03-17 18   13.8    73.3     995         30          
1999-03-18 00   14.1    73.1     995         30          
1999-03-18 06   14.5    73.2     996         30          
1999-03-18 12   14.8    73.2     997         28          
1999-03-18 18   15.2    73.2     999         25          
1999-03-19 00   15.7    73.0     999         25          
1999-03-19 06   15.8    72.5     999         25          
1999-03-19 12   16.5    72.0     999         25          
1999-03-19 18   17.3    71.4     999         25          
1999-03-20 00   17.9    70.7    1000         23          
1999-03-20 06   18.3    70.3    1002         20          
1999-03-20 12   18.7    70.0    1002         20          
1999-03-20 18   19.2    70.1    1003         15          
1999-03-21 00   19.9    70.2    1004         15          
Winds are 10-min average.

Tropical cyclone tracks developed by Michael Bath using operational warnings and advisories and Google Maps.


[Australian Severe Weather index] [Copyright Notice] [Email Contacts] [Search This Site] [Privacy Policy]
Document: tropical_cyclone_199929.htm Updated: 4 September 2016